Private Wetterstation Sandau
Wetterdaten: Woche 18.03.13 - 24.03.13 (KW12)
Datum Zeit Temp. A. Feuchte A. Luftdruck Regen Wind Richtung Taupunkt Windchill
18.03.2013 00:00 -0,1 C 68 % 1004,0 hPa 0,0 l/m 14,6 km/h (3 Bft) O-SO -5,3 C -4,1 C
18.03.2013 01:00 0,1 C 73 % 1003,8 hPa 0,0 l/m 14,9 km/h (3 Bft) S-SO -4,2 C -4,1 C
18.03.2013 02:00 -0,5 C 79 % 1002,9 hPa 0,0 l/m 18,0 km/h (3 Bft) SO -3,6 C -5,5 C
18.03.2013 03:00 -0,4 C 76 % 1002,9 hPa 0,0 l/m 16,5 km/h (3 Bft) SO -4,1 C -5,1 C
18.03.2013 04:00 -1,0 C 81 % 1002,2 hPa 0,0 l/m 13,9 km/h (3 Bft) SO -3,8 C -5,3 C
18.03.2013 05:00 -0,4 C 73 % 1001,5 hPa 0,0 l/m 14,0 km/h (3 Bft) SO -4,7 C -4,7 C
18.03.2013 06:00 -0,4 C 73 % 1001,2 hPa 0,0 l/m 16,3 km/h (3 Bft) SO -4,7 C -5,0 C
18.03.2013 07:00 -0,6 C 76 % 1001,1 hPa 0,0 l/m 17,5 km/h (3 Bft) SO -4,3 C -5,4 C
18.03.2013 08:00 -0,9 C 82 % 1001,1 hPa 0,0 l/m 10,6 km/h (2 Bft) SO -3,6 C -4,2 C
18.03.2013 09:00 -0,5 C 84 % 1001,1 hPa 0,0 l/m 10,4 km/h (2 Bft) O-SO -2,9 C -3,6 C
18.03.2013 10:00 0,1 C 84 % 1000,6 hPa 0,0 l/m 10,7 km/h (2 Bft) SO -2,4 C -3,3 C
18.03.2013 11:00 -0,0 C 83 % 1000,4 hPa 0,0 l/m 14,9 km/h (3 Bft) O-NO -2,6 C -4,4 C
18.03.2013 12:00 0,2 C 83 % 1000,2 hPa 0,0 l/m 11,1 km/h (2 Bft) O-SO -2,4 C -3,3 C
18.03.2013 13:00 0,5 C 82 % 999,6 hPa 0,0 l/m 13,6 km/h (3 Bft) SO -2,2 C -3,4 C
18.03.2013 14:00 0,6 C 80 % 999,3 hPa 0,0 l/m 8,1 km/h (2 Bft) O-SO -2,3 C -1,8 C
18.03.2013 15:00 1,3 C 74 % 998,7 hPa 0,0 l/m 6,0 km/h (2 Bft) O-NO -2,8 C -0,4 C
18.03.2013 16:00 1,0 C 72 % 998,5 hPa 0,0 l/m 8,8 km/h (2 Bft) O -3,5 C -1,5 C
18.03.2013 17:00 0,1 C 79 % 998,6 hPa 0,0 l/m 13,8 km/h (3 Bft) O-NO -3,1 C -3,9 C
18.03.2013 18:00 -0,8 C 87 % 998,6 hPa 0,0 l/m 9,8 km/h (2 Bft) O -2,7 C -4,1 C
18.03.2013 19:00 -1,1 C 89 % 998,5 hPa 0,0 l/m 6,0 km/h (2 Bft) NO -2,7 C -2,8 C
18.03.2013 20:00 -1,4 C 89 % 998,1 hPa 0,0 l/m 7,6 km/h (2 Bft) NO -3,0 C -3,9 C
18.03.2013 21:00 -1,6 C 89 % 997,6 hPa 0,0 l/m 7,9 km/h (2 Bft) O-NO -3,2 C -4,3 C
18.03.2013 22:00 -1,6 C 89 % 997,1 hPa 0,0 l/m 8,1 km/h (2 Bft) NO -3,2 C -4,4 C
18.03.2013 23:00 -1,6 C 89 % 996,8 hPa 0,0 l/m 7,3 km/h (2 Bft) NO -3,2 C -4,1 C
19.03.2013 00:00 -1,6 C 89 % 996,5 hPa 0,0 l/m 3,5 km/h (1 Bft) NO -3,2 C -2,3 C
19.03.2013 01:00 -1,6 C 89 % 996,2 hPa 0,0 l/m 3,9 km/h (1 Bft) N-NO -3,2 C -2,4 C
19.03.2013 02:00 -1,7 C 90 % 995,7 hPa 0,0 l/m 4,9 km/h (1 Bft) N -3,1 C -3,0 C
19.03.2013 03:00 -1,7 C 90 % 995,4 hPa 0,0 l/m 4,1 km/h (1 Bft) NO -3,1 C -2,1 C
19.03.2013 04:00 -1,8 C 90 % 995,4 hPa 0,0 l/m 6,1 km/h (2 Bft) N -3,2 C -3,5 C
19.03.2013 05:00 -1,8 C 90 % 995,6 hPa 0,0 l/m 6,9 km/h (2 Bft) N-NO -3,2 C -4,2 C
19.03.2013 06:00 -1,8 C 90 % 995,9 hPa 0,0 l/m 5,8 km/h (2 Bft) N-NO -3,2 C -4,0 C
19.03.2013 07:00 -1,7 C 90 % 996,2 hPa 0,0 l/m 5,9 km/h (2 Bft) N-NO -3,2 C -3,3 C
19.03.2013 08:00 -1,3 C 89 % 996,3 hPa 0,0 l/m 6,2 km/h (2 Bft) N-NO -2,9 C -3,3 C
19.03.2013 09:00 -0,5 C 87 % 996,5 hPa 0,0 l/m 6,8 km/h (2 Bft) N-NO -2,4 C -2,8 C
19.03.2013 10:00 0,5 C 84 % 996,8 hPa 0,0 l/m 6,0 km/h (2 Bft) N-NO -1,9 C -1,2 C
19.03.2013 11:00 1,7 C 81 % 997,2 hPa 0,0 l/m 5,6 km/h (1 Bft) W-NW -1,2 C 0,5 C
19.03.2013 12:00 2,4 C 79 % 997,7 hPa 0,0 l/m 5,8 km/h (2 Bft) NW -0,9 C 1,1 C
19.03.2013 13:00 2,2 C 77 % 998,0 hPa 0,0 l/m 8,3 km/h (2 Bft) NW -1,4 C 0,2 C
19.03.2013 14:00 1,9 C 79 % 998,1 hPa 0,0 l/m 6,7 km/h (2 Bft) W-NW -1,4 C 0,4 C
19.03.2013 15:00 1,8 C 80 % 998,5 hPa 0,0 l/m 4,7 km/h (1 Bft) W-NW -1,3 C 0,6 C
19.03.2013 16:00 0,6 C 84 % 998,7 hPa 0,0 l/m 2,8 km/h (1 Bft) N-NO -1,8 C 0,3 C
19.03.2013 17:00 -0,1 C 86 % 999,1 hPa 0,0 l/m 7,4 km/h (2 Bft) N-NO -2,1 C -2,1 C
19.03.2013 18:00 -1,0 C 88 % 1000,0 hPa 0,0 l/m 6,6 km/h (2 Bft) N-NO -2,7 C -3,0 C
19.03.2013 19:00 -1,1 C 89 % 1000,4 hPa 0,0 l/m 4,7 km/h (1 Bft) N -2,7 C -2,1 C
19.03.2013 20:00 -1,4 C 89 % 1001,0 hPa 0,0 l/m 4,3 km/h (1 Bft) N-NO -3,0 C -2,4 C
19.03.2013 21:00 -1,4 C 89 % 1001,2 hPa 0,0 l/m 2,9 km/h (1 Bft) NW -3,0 C -1,8 C
19.03.2013 22:00 -1,1 C 90 % 1001,6 hPa 0,0 l/m 4,4 km/h (1 Bft) N-NW -2,6 C -2,1 C
19.03.2013 23:00 -1,3 C 89 % 1002,2 hPa 0,0 l/m 4,2 km/h (1 Bft) N-NO -2,9 C -2,2 C
20.03.2013 00:00 -1,5 C 89 % 1002,7 hPa 0,0 l/m 5,0 km/h (1 Bft) N-NO -3,1 C -2,8 C
20.03.2013 01:00 -1,7 C 89 % 1003,3 hPa 0,0 l/m 5,6 km/h (1 Bft) W-NW -3,3 C -3,2 C
20.03.2013 02:00 -1,4 C 88 % 1003,7 hPa 0,0 l/m 5,5 km/h (1 Bft) W-NW -3,1 C -3,1 C
20.03.2013 03:00 -1,5 C 88 % 1003,9 hPa 0,0 l/m 4,6 km/h (1 Bft) NW -3,2 C -2,9 C
20.03.2013 04:00 -1,4 C 88 % 1004,4 hPa 0,0 l/m 3,6 km/h (1 Bft) NW -3,1 C -2,0 C
20.03.2013 05:00 -1,3 C 88 % 1004,7 hPa 0,0 l/m 5,0 km/h (1 Bft) NW -3,1 C -2,7 C
20.03.2013 06:00 -1,4 C 87 % 1005,2 hPa 0,0 l/m 3,2 km/h (1 Bft) W-NW -3,3 C -1,9 C
20.03.2013 07:00 -1,0 C 87 % 1005,8 hPa 0,0 l/m 6,2 km/h (2 Bft) N-NO -2,9 C -3,1 C
20.03.2013 08:00 0,3 C 84 % 1006,2 hPa 0,0 l/m 2,6 km/h (1 Bft) W-NW -2,1 C 0,2 C
20.03.2013 09:00 0,7 C 80 % 1006,4 hPa 0,0 l/m 3,6 km/h (1 Bft) N-NO -2,3 C -0,1 C
20.03.2013 10:00 2,7 C 75 % 1007,0 hPa 0,0 l/m 2,3 km/h (1 Bft) W-NW -1,4 C 2,6 C
20.03.2013 11:00 4,0 C 69 % 1007,3 hPa 0,0 l/m 2,3 km/h (1 Bft) W-NW -1,2 C 3,9 C
20.03.2013 12:00 5,0 C 64 % 1007,4 hPa 0,0 l/m 2,1 km/h (1 Bft) W-NW -1,3 C 4,8 C
20.03.2013 13:00 5,3 C 63 % 1007,6 hPa 0,0 l/m 2,3 km/h (1 Bft) W -1,3 C 5,2 C
20.03.2013 14:00 4,2 C 63 % 1007,8 hPa 0,0 l/m 0,9 km/h (0 Bft) O-NO -2,3 C 4,2 C
20.03.2013 15:00 3,2 C 65 % 1007,7 hPa 0,5 l/m 2,1 km/h (1 Bft) SO -2,7 C 3,1 C
20.03.2013 16:00 2,3 C 67 % 1007,7 hPa 0,0 l/m 2,3 km/h (1 Bft) SO -3,1 C 2,2 C
20.03.2013 17:00 1,6 C 71 % 1008,0 hPa 0,0 l/m 1,8 km/h (1 Bft) SO -3,1 C 1,5 C
20.03.2013 18:00 0,8 C 75 % 1008,6 hPa 0,0 l/m 1,9 km/h (1 Bft) O-SO -3,2 C 0,8 C
20.03.2013 19:00 0,4 C 78 % 1009,1 hPa 0,0 l/m 4,3 km/h (1 Bft) O-NO -3,0 C -0,5 C
20.03.2013 20:00 0,3 C 80 % 1009,9 hPa 0,0 l/m 1,4 km/h (1 Bft) O-SO -2,7 C 0,1 C
20.03.2013 21:00 -0,1 C 85 % 1010,5 hPa 0,0 l/m 3,8 km/h (1 Bft) O-SO -2,3 C -0,8 C
20.03.2013 22:00 -0,7 C 88 % 1011,0 hPa 0,0 l/m 6,2 km/h (2 Bft) O-NO -2,5 C -2,7 C
Min-Datum _ 19.03.13 20.03.13 19.03.13 - 18.03.13 - 18.03.13 18.03.13
_ Min-Zeit 06:26 14:01 03:26 - 15:21 - 00:11 04:06
Minimum _ -1,9 C 61 % 995,2 hPa - 0,0 km/h (0 Bft) - -5,5 C -7,1 C
Max-Datum _ 20.03.13 19.03.13 20.03.13 20.03.13 18.03.13 - 19.03.13 20.03.13
_ Max-Zeit 13:21 06:46 22:36 15:51 01:51 - 12:31 13:21
Maximum _ 5,4 C 91 % 1011,2 hPa 0,5 l/m 29,5 km/h
S-SO (5 Bft)
- -0,7 C 5,4 C
Durchschnitt _ -0,0 C 82 % 1001,6 hPa #0,5 l/m 6,9 km/h (2 Bft) N-NO -2,8 C -1,9 C
(c) by David Heller